Terminal Aerodrome Forecast
Issued by NWS

Home | Current Version | Previous Version | Text Only | Print | Product List | Glossary Off
Versions: 1 2 3 4 5 6 7 8 9 10 11 12 13 14

000
FTUS43 KBIS 261730
TAFJMS
TAF
KJMS 261730Z 2618/2718 20007KT P6SM SKC
     FM270300 13008KT P6SM SCT040
      TEMPO 2711/2714 5SM BR
     FM271600 16015KT P6SM SCT100=

USA.gov is the U.S. government's official web portal to all federal, state and local government web resources and services.